Terminal Aerodrome Forecast
Issued by NWS Rapid City, SD

Home | Current Version | Previous Version | Text Only | Print | Product List | Glossary On
Versions: 1 2 3 4 5 6 7 8 9 10 11 12 13 14 15 16 17
635
FTUS43 KUNR 102320
TAFRAP
TAF
KRAP 102320Z 1100/1124 31015G22KT P6SM SCT250
     FM110600 32025G35KT P6SM SCT150
     FM111100 33034G48KT P6SM SCT250=

USA.gov is the U.S. government's official web portal to all federal, state and local government web resources and services.